createdAt,value
2023-08-22T00:00:56.395Z,102218.50
2023-08-22T00:03:25.748Z,102222.22
2023-08-22T00:05:55.022Z,102215.00
2023-08-22T00:08:24.235Z,102216.03
2023-08-22T00:10:53.513Z,102213.41
2023-08-22T00:13:22.676Z,102212.69
2023-08-22T00:15:51.914Z,102217.28
2023-08-22T00:18:21.165Z,102225.44
2023-08-22T00:20:50.378Z,102223.88
2023-08-22T00:23:20.052Z,102213.22
2023-08-22T00:25:49.310Z,102211.56
2023-08-22T00:28:18.537Z,102215.38
2023-08-22T00:30:48.043Z,102210.94
2023-08-22T00:33:17.233Z,102210.06
2023-08-22T00:35:46.398Z,102210.19
2023-08-22T00:38:15.551Z,102213.03
2023-08-22T00:40:44.776Z,102207.75
2023-08-22T00:43:14.013Z,102191.53
2023-08-22T00:45:44.999Z,102196.84
2023-08-22T00:48:14.780Z,102197.91
2023-08-22T00:50:44.704Z,102190.75
2023-08-22T00:53:14.133Z,102192.50
2023-08-22T00:55:43.509Z,102193.50
2023-08-22T00:58:14.431Z,102190.81
2023-08-22T01:00:43.734Z,102196.41
2023-08-22T01:03:13.981Z,102194.84
2023-08-22T01:05:52.321Z,102203.06
2023-08-22T01:08:31.037Z,102201.56
2023-08-22T01:11:28.560Z,102196.38
2023-08-22T01:13:59.741Z,102182.00
2023-08-22T01:16:29.291Z,102184.84
2023-08-22T01:19:02.446Z,102169.69
2023-08-22T01:21:35.382Z,102173.34
2023-08-22T01:24:06.647Z,102161.72
2023-08-22T01:26:35.934Z,102156.47
2023-08-22T01:29:12.935Z,102163.75
2023-08-22T01:32:22.793Z,102166.63
2023-08-22T01:34:58.836Z,102163.19
2023-08-22T01:37:29.403Z,102164.22
2023-08-22T01:40:00.770Z,102167.03
2023-08-22T01:42:30.914Z,102163.56
2023-08-22T01:45:00.237Z,102154.72
2023-08-22T01:47:29.503Z,102165.59
2023-08-22T01:49:58.794Z,102162.97
2023-08-22T01:52:28.041Z,102166.66
2023-08-22T01:54:57.254Z,102164.94
2023-08-22T01:57:27.627Z,102156.19
2023-08-22T01:59:56.833Z,102167.97
2023-08-22T02:02:26.143Z,102157.34
2023-08-22T02:04:55.382Z,102156.66
2023-08-22T02:07:24.628Z,102153.28
2023-08-22T02:09:53.852Z,102154.38
2023-08-22T02:12:25.605Z,102151.88
2023-08-22T02:14:54.985Z,102155.50
2023-08-22T02:17:24.117Z,102154.75
2023-08-22T02:19:53.332Z,102161.13
2023-08-22T02:22:22.595Z,102155.94
2023-08-22T02:24:51.793Z,102148.97
2023-08-22T02:27:20.991Z,102152.72
2023-08-22T02:29:50.600Z,102163.63
2023-08-22T02:32:19.802Z,102153.94
2023-08-22T02:34:48.969Z,102150.56
2023-08-22T02:37:18.185Z,102148.00
2023-08-22T02:39:47.377Z,102154.44
2023-08-22T02:42:16.608Z,102153.59
2023-08-22T02:44:45.881Z,102147.53
2023-08-22T02:47:15.097Z,102148.63
2023-08-22T02:49:44.294Z,102154.16
2023-08-22T02:52:13.458Z,102148.06
2023-08-22T02:54:42.622Z,102150.03
2023-08-22T02:57:11.806Z,102150.16
2023-08-22T02:59:40.983Z,102152.97
2023-08-22T03:02:11.625Z,102149.47
2023-08-22T03:04:41.105Z,102148.59
2023-08-22T03:07:11.535Z,102143.41
2023-08-22T03:09:45.621Z,102143.53
2023-08-22T03:12:15.290Z,102132.91
2023-08-22T03:14:45.061Z,102138.34
2023-08-22T03:17:14.506Z,102139.34
2023-08-22T03:19:43.772Z,102143.09
2023-08-22T03:22:12.941Z,102142.28
2023-08-22T03:24:42.154Z,102142.34
2023-08-22T03:27:12.082Z,102140.66
2023-08-22T03:29:42.901Z,102139.84
2023-08-22T03:32:12.543Z,102134.53
2023-08-22T03:34:41.804Z,102139.16
2023-08-22T03:37:11.157Z,102141.13
2023-08-22T03:39:40.851Z,102134.97
2023-08-22T03:42:11.339Z,102128.78
2023-08-22T03:44:40.617Z,102131.63
2023-08-22T03:47:09.953Z,102126.28
2023-08-22T03:49:43.405Z,102129.91
2023-08-22T03:52:13.302Z,102125.47
2023-08-22T03:54:42.521Z,102128.16
2023-08-22T03:57:11.724Z,102123.72
2023-08-22T03:59:40.975Z,102128.28
2023-08-22T04:02:10.236Z,102129.16
2023-08-22T04:04:39.422Z,102124.84
2023-08-22T04:07:08.581Z,102121.34
2023-08-22T04:09:38.108Z,102124.03
2023-08-22T04:12:07.502Z,102117.91
2023-08-22T04:14:38.188Z,102123.41
2023-08-22T04:17:07.460Z,102116.25
2023-08-22T04:19:36.704Z,102118.94
2023-08-22T04:22:06.165Z,102120.97
2023-08-22T04:24:35.398Z,102128.16
2023-08-22T04:27:05.472Z,102129.16
2023-08-22T04:29:35.245Z,102129.25
2023-08-22T04:32:05.056Z,102133.75
2023-08-22T04:34:35.257Z,102136.53
2023-08-22T04:37:06.618Z,102129.47
2023-08-22T04:39:36.120Z,102137.53
2023-08-22T04:42:17.044Z,102131.34
2023-08-22T04:44:55.309Z,102144.78
2023-08-22T04:47:24.718Z,102153.78
2023-08-22T04:49:53.917Z,102152.97
2023-08-22T04:52:23.113Z,102159.28
2023-08-22T04:54:52.372Z,102160.09
2023-08-22T04:57:24.913Z,102157.53
2023-08-22T04:59:56.213Z,102154.03
2023-08-22T05:02:26.325Z,102146.84
2023-08-22T05:04:55.809Z,102148.66
2023-08-22T05:07:25.547Z,102154.97
2023-08-22T05:09:55.521Z,102155.84
2023-08-22T05:12:24.900Z,102161.97
2023-08-22T05:14:54.210Z,102152.03
2023-08-22T05:17:23.488Z,102154.59
2023-08-22T05:19:53.154Z,102141.03
2023-08-22T05:22:22.384Z,102138.22
2023-08-22T05:24:52.288Z,102138.97
2023-08-22T05:27:21.522Z,102130.72
2023-08-22T05:29:50.675Z,102131.47
2023-08-22T05:32:20.635Z,102126.78
2023-08-22T05:34:51.732Z,102132.78
2023-08-22T05:37:21.059Z,102134.31
2023-08-22T05:39:50.709Z,102132.28
2023-08-22T05:42:20.538Z,102137.34
2023-08-22T05:44:49.713Z,102130.84
2023-08-22T05:47:18.879Z,102131.38
2023-08-22T05:49:48.357Z,102133.72
2023-08-22T05:52:17.617Z,102139.72
2023-08-22T05:54:46.878Z,102153.72
2023-08-22T05:57:16.067Z,102144.50
2023-08-22T05:59:45.364Z,102150.56
2023-08-22T06:02:14.749Z,102143.16
2023-08-22T06:04:45.599Z,102146.47
2023-08-22T06:07:15.020Z,102141.84
2023-08-22T06:09:44.285Z,102134.41
2023-08-22T06:12:13.626Z,102137.91
2023-08-22T06:14:43.207Z,102144.03
2023-08-22T06:17:12.468Z,102143.00
2023-08-22T06:19:41.718Z,102144.63
2023-08-22T06:22:11.077Z,102148.22
2023-08-22T06:24:40.314Z,102146.31
2023-08-22T06:27:10.257Z,102132.69
2023-08-22T06:29:39.901Z,102134.69
2023-08-22T06:32:09.370Z,102143.94
2023-08-22T06:34:39.825Z,102145.97
2023-08-22T06:37:09.049Z,102139.66
2023-08-22T06:42:26.647Z,102150.38
2023-08-22T06:44:57.988Z,102147.97
2023-08-22T06:47:27.675Z,102140.00
2023-08-22T06:49:56.853Z,102132.66
2023-08-22T06:52:26.043Z,102128.66
2023-08-22T06:54:55.644Z,102132.50
2023-08-22T06:57:25.196Z,102128.66
2023-08-22T06:59:54.421Z,102132.78
2023-08-22T07:02:23.662Z,102132.47
2023-08-22T07:04:52.967Z,102129.81
2023-08-22T07:07:22.228Z,102136.16
2023-08-22T07:09:53.137Z,102137.59
2023-08-22T07:12:22.348Z,102143.22
2023-08-22T07:14:51.586Z,102144.59
2023-08-22T07:17:20.768Z,102145.38
2023-08-22T07:19:51.683Z,102142.03
2023-08-22T07:22:21.971Z,102142.03
2023-08-22T07:24:51.205Z,102138.31
2023-08-22T07:27:21.806Z,102140.50
2023-08-22T07:29:51.121Z,102145.47
2023-08-22T07:32:20.964Z,102156.84
2023-08-22T07:34:50.992Z,102158.28
2023-08-22T07:37:20.162Z,102153.81
2023-08-22T07:39:49.312Z,102153.06
2023-08-22T07:42:18.552Z,102160.34
2023-08-22T07:44:47.785Z,102167.50
2023-08-22T07:47:16.944Z,102167.69
2023-08-22T07:49:46.649Z,102169.44
2023-08-22T07:52:15.815Z,102173.69
2023-08-22T07:54:44.982Z,102183.75
2023-08-22T07:57:19.197Z,102191.03
2023-08-22T07:59:48.987Z,102185.31
2023-08-22T08:02:18.201Z,102192.19
2023-08-22T08:04:47.486Z,102190.25
2023-08-22T08:07:16.666Z,102192.28
2023-08-22T08:09:45.886Z,102195.00
2023-08-22T08:12:15.102Z,102191.88
2023-08-22T08:14:44.374Z,102199.06
2023-08-22T08:17:13.708Z,102194.69
2023-08-22T08:19:42.967Z,102197.41
2023-08-22T08:22:12.588Z,102192.84
2023-08-22T08:24:41.752Z,102187.63
2023-08-22T08:27:10.985Z,102187.72
2023-08-22T08:29:40.153Z,102193.53
2023-08-22T08:32:09.383Z,102190.34
2023-08-22T08:34:38.717Z,102190.94
2023-08-22T08:37:08.057Z,102185.50
2023-08-22T08:39:37.259Z,102182.53
2023-08-22T08:42:13.854Z,102177.19
2023-08-22T08:44:43.923Z,102183.66
2023-08-22T08:47:13.960Z,102184.13
2023-08-22T08:49:44.160Z,102191.91
2023-08-22T08:52:13.897Z,102187.66
2023-08-22T08:54:44.198Z,102175.44
2023-08-22T08:57:13.414Z,102167.78
2023-08-22T08:59:43.773Z,102175.75
2023-08-22T09:05:07.824Z,102173.31
2023-08-22T09:07:37.273Z,102176.03
2023-08-22T09:10:09.866Z,102181.00
2023-08-22T09:12:42.491Z,102178.56
2023-08-22T09:15:19.797Z,102170.34
2023-08-22T09:17:49.056Z,102165.81
2023-08-22T09:20:19.960Z,102180.50
2023-08-22T09:22:49.226Z,102181.69
2023-08-22T09:25:19.937Z,102182.72
2023-08-22T09:27:52.473Z,102179.00
2023-08-22T09:30:27.121Z,102177.59
2023-08-22T09:33:02.796Z,102172.91
2023-08-22T09:35:34.713Z,102176.81
2023-08-22T09:38:12.691Z,102177.50
2023-08-22T09:40:53.321Z,102171.28
2023-08-22T09:43:23.678Z,102171.06
2023-08-22T09:45:53.872Z,102168.75
2023-08-22T09:48:31.686Z,102166.34
2023-08-22T09:51:08.544Z,102160.81
2023-08-22T09:53:41.026Z,102171.91
2023-08-22T09:56:10.351Z,102173.44
2023-08-22T09:58:42.286Z,102179.97
2023-08-22T10:01:15.607Z,102173.53
2023-08-22T10:03:47.102Z,102177.44
2023-08-22T10:06:17.417Z,102189.88
2023-08-22T10:08:47.065Z,102182.47
2023-08-22T10:11:19.858Z,102184.94
2023-08-22T10:13:49.177Z,102174.97
2023-08-22T10:16:18.452Z,102178.94
2023-08-22T10:18:48.467Z,102175.13
2023-08-22T10:21:18.461Z,102178.44
2023-08-22T10:23:56.636Z,102174.09
2023-08-22T10:26:30.004Z,102182.22
2023-08-22T10:29:18.863Z,102172.16
2023-08-22T10:32:03.130Z,102177.75
2023-08-22T10:34:41.891Z,102184.06
2023-08-22T10:37:46.605Z,102187.16
2023-08-22T10:40:33.817Z,102175.06
2023-08-22T10:43:08.254Z,102166.75
2023-08-22T10:45:39.803Z,102179.00
2023-08-22T10:48:14.904Z,102178.09
2023-08-22T10:50:46.048Z,102181.63
2023-08-22T10:53:29.319Z,102178.81
2023-08-22T10:56:18.106Z,102182.28
2023-08-22T10:58:58.695Z,102173.13
2023-08-22T11:01:28.744Z,102180.13
2023-08-22T11:03:58.967Z,102176.47
2023-08-22T11:06:28.171Z,102174.72
2023-08-22T11:08:57.414Z,102173.28
2023-08-22T11:11:26.769Z,102176.53
2023-08-22T11:13:57.956Z,102186.97
2023-08-22T11:16:27.468Z,102177.44
2023-08-22T11:18:56.778Z,102181.00
2023-08-22T11:21:27.106Z,102187.38
2023-08-22T11:23:56.382Z,102197.81
2023-08-22T11:26:26.287Z,102184.44
2023-08-22T11:28:58.939Z,102166.97
2023-08-22T11:31:28.276Z,102189.66
2023-08-22T11:33:57.514Z,102184.50
2023-08-22T11:36:28.324Z,102176.91
2023-08-22T11:38:58.342Z,102178.44
2023-08-22T11:41:30.665Z,102182.91
2023-08-22T11:44:02.213Z,102183.06
2023-08-22T11:46:35.090Z,102180.31
2023-08-22T11:49:22.694Z,102174.00
2023-08-22T11:54:34.423Z,102184.75
2023-08-22T11:57:03.778Z,102186.22
2023-08-22T11:59:32.953Z,102176.59
2023-08-22T12:02:03.006Z,102173.25
2023-08-22T12:04:49.340Z,102178.00
2023-08-22T12:07:18.600Z,102180.56
2023-08-22T12:10:13.464Z,102180.69
2023-08-22T12:12:42.642Z,102186.03
2023-08-22T12:15:11.932Z,102189.41
2023-08-22T12:17:41.181Z,102193.81
2023-08-22T12:20:10.935Z,102175.97
2023-08-22T12:22:40.218Z,102181.53
2023-08-22T12:25:09.691Z,102178.72
2023-08-22T12:27:38.909Z,102175.91
2023-08-22T12:30:11.648Z,102183.09
2023-08-22T12:32:44.089Z,102190.53
2023-08-22T12:35:13.501Z,102187.16
2023-08-22T12:37:43.158Z,102192.03
2023-08-22T12:40:12.617Z,102188.81
2023-08-22T12:42:43.145Z,102192.91
2023-08-22T12:45:12.541Z,102192.50
2023-08-22T12:47:43.838Z,102192.91
2023-08-22T12:50:13.393Z,102189.66
2023-08-22T12:52:42.681Z,102187.28
2023-08-22T12:55:12.061Z,102188.22
2023-08-22T12:57:42.937Z,102192.03
2023-08-22T13:00:12.861Z,102185.34
2023-08-22T13:02:46.707Z,102182.41
2023-08-22T13:05:26.723Z,102164.06
2023-08-22T13:07:58.190Z,102175.19
2023-08-22T13:10:27.379Z,102174.97
2023-08-22T13:12:56.809Z,102167.78
2023-08-22T13:15:26.114Z,102167.13
2023-08-22T13:17:58.441Z,102162.69
2023-08-22T13:20:27.740Z,102159.75
2023-08-22T13:22:56.915Z,102160.88
2023-08-22T13:25:26.218Z,102160.53
2023-08-22T13:27:55.464Z,102163.44
2023-08-22T13:30:24.793Z,102164.56
2023-08-22T13:32:54.065Z,102162.25
2023-08-22T13:35:24.014Z,102162.38
2023-08-22T13:37:53.179Z,102160.22
2023-08-22T13:40:23.110Z,102152.03
2023-08-22T13:42:52.369Z,102163.91
2023-08-22T13:45:22.267Z,102164.50
2023-08-22T13:47:56.161Z,102171.22
2023-08-22T13:50:25.429Z,102179.09
2023-08-22T13:52:54.649Z,102166.13
2023-08-22T13:55:23.948Z,102158.06
2023-08-22T13:57:53.161Z,102152.72
2023-08-22T14:00:22.466Z,102149.03
2023-08-22T14:02:51.969Z,102157.41
2023-08-22T14:05:29.808Z,102164.41
2023-08-22T14:07:59.342Z,102156.63
2023-08-22T14:10:31.110Z,102143.47
2023-08-22T14:13:00.318Z,102143.88
2023-08-22T14:15:29.542Z,102145.84
2023-08-22T14:17:58.900Z,102149.31
2023-08-22T14:20:28.078Z,102150.97
2023-08-22T14:22:57.290Z,102142.44
2023-08-22T14:25:26.493Z,102142.91
2023-08-22T14:27:55.789Z,102142.91
2023-08-22T14:30:25.136Z,102148.44
2023-08-22T14:32:54.321Z,102137.03
2023-08-22T14:35:23.489Z,102135.41
2023-08-22T14:37:52.629Z,102137.03
2023-08-22T14:40:21.822Z,102130.84
2023-08-22T14:42:51.037Z,102139.63
2023-08-22T14:45:20.216Z,102137.03
2023-08-22T14:47:50.062Z,102137.78
2023-08-22T14:50:19.280Z,102134.31
2023-08-22T14:52:50.934Z,102130.25
2023-08-22T14:55:20.135Z,102125.28
2023-08-22T14:57:51.361Z,102129.28
2023-08-22T15:00:24.400Z,102128.66
2023-08-22T15:02:53.626Z,102128.78
2023-08-22T15:05:22.849Z,102127.81
2023-08-22T15:07:52.002Z,102124.09
2023-08-22T15:10:21.418Z,102127.16
2023-08-22T15:12:50.603Z,102131.94
2023-08-22T15:15:19.806Z,102120.16
2023-08-22T15:17:49.741Z,102114.19
2023-08-22T15:20:19.089Z,102122.69
2023-08-22T15:22:48.318Z,102116.16
2023-08-22T15:25:17.693Z,102120.16
2023-08-22T15:27:49.237Z,102121.81
2023-08-22T15:30:18.383Z,102124.22
2023-08-22T15:32:48.019Z,102126.41
2023-08-22T15:35:17.212Z,102130.34
2023-08-22T15:37:47.677Z,102125.63
2023-08-22T15:40:17.092Z,102126.06
2023-08-22T15:42:46.289Z,102123.66
2023-08-22T15:45:15.528Z,102128.66
2023-08-22T15:47:45.120Z,102128.91
2023-08-22T15:50:14.580Z,102129.22
2023-08-22T15:52:43.817Z,102131.84
2023-08-22T15:55:12.971Z,102125.88
2023-08-22T15:57:42.149Z,102131.63
2023-08-22T16:00:11.638Z,102130.75
2023-08-22T16:02:40.807Z,102128.50
2023-08-22T16:05:10.137Z,102127.25
2023-08-22T16:07:39.446Z,102124.53
2023-08-22T16:10:08.869Z,102127.72
2023-08-22T16:12:38.447Z,102134.56
2023-08-22T16:15:08.036Z,102117.16
2023-08-22T16:17:37.290Z,102118.69
2023-08-22T16:20:07.037Z,102126.63
2023-08-22T16:22:36.370Z,102132.19
2023-08-22T16:25:05.956Z,102126.97
2023-08-22T16:27:37.412Z,102127.63
2023-08-22T16:30:08.460Z,102122.59
2023-08-22T16:32:37.824Z,102127.84
2023-08-22T16:35:07.797Z,102120.22
2023-08-22T16:37:37.146Z,102121.31
2023-08-22T16:40:06.862Z,102118.91
2023-08-22T16:42:36.016Z,102113.34
2023-08-22T16:45:05.442Z,102114.13
2023-08-22T16:47:34.613Z,102111.09
2023-08-22T16:50:06.733Z,102108.25
2023-08-22T16:52:36.972Z,102104.41
2023-08-22T16:55:06.536Z,102108.78
2023-08-22T16:57:36.473Z,102107.81
2023-08-22T17:00:12.853Z,102109.00
2023-08-22T17:02:42.163Z,102105.53
2023-08-22T17:05:11.461Z,102112.63
2023-08-22T17:07:40.822Z,102108.53
2023-08-22T17:10:11.276Z,102106.88
2023-08-22T17:12:40.878Z,102108.53
2023-08-22T17:15:11.245Z,102110.03
2023-08-22T17:17:40.659Z,102116.22
2023-08-22T17:20:10.211Z,102115.78
2023-08-22T17:22:39.411Z,102116.88
2023-08-22T17:25:09.663Z,102114.44
2023-08-22T17:27:38.915Z,102120.31
2023-08-22T17:30:08.871Z,102117.03
2023-08-22T17:32:38.128Z,102120.00
2023-08-22T17:35:07.741Z,102116.22
2023-08-22T17:37:36.925Z,102113.03
2023-08-22T17:40:06.459Z,102120.81
2023-08-22T17:42:36.112Z,102119.31
2023-08-22T17:45:05.368Z,102115.66
2023-08-22T17:47:34.595Z,102116.81
2023-08-22T17:50:05.438Z,102120.84
2023-08-22T17:52:34.654Z,102121.13
2023-08-22T17:55:04.307Z,102121.13
2023-08-22T17:57:33.509Z,102127.94
2023-08-22T18:00:02.663Z,102131.13
2023-08-22T18:02:41.495Z,102124.50
2023-08-22T18:05:10.780Z,102123.75
2023-08-22T18:07:39.979Z,102126.75
2023-08-22T18:10:09.727Z,102126.28
2023-08-22T18:12:38.951Z,102127.53
2023-08-22T18:15:08.548Z,102126.66
2023-08-22T18:17:37.849Z,102122.59
2023-08-22T18:20:09.419Z,102125.69
2023-08-22T18:22:42.094Z,102125.91
2023-08-22T18:25:11.492Z,102123.47
2023-08-22T18:27:40.730Z,102125.72
2023-08-22T18:30:10.381Z,102126.69
2023-08-22T18:32:39.575Z,102125.09
2023-08-22T18:35:09.289Z,102130.06
2023-08-22T18:37:40.003Z,102128.56
2023-08-22T18:40:10.503Z,102135.34
2023-08-22T18:42:39.725Z,102145.69
2023-08-22T18:45:09.298Z,102140.78
2023-08-22T18:47:38.581Z,102135.56
2023-08-22T18:50:08.461Z,102137.84
2023-08-22T18:52:37.837Z,102154.50
2023-08-22T18:55:07.573Z,102156.78
2023-08-22T18:57:36.825Z,102155.13
2023-08-22T19:00:10.339Z,102163.72
2023-08-22T19:02:39.596Z,102160.38
2023-08-22T19:05:09.085Z,102162.59
2023-08-22T19:07:38.275Z,102168.34
2023-08-22T19:10:07.827Z,102165.94
2023-08-22T19:12:37.010Z,102180.75
2023-08-22T19:15:07.354Z,102181.09
2023-08-22T19:17:36.565Z,102184.16
2023-08-22T19:20:06.082Z,102177.25
2023-08-22T19:22:35.614Z,102185.59
2023-08-22T19:25:04.957Z,102194.00
2023-08-22T19:27:36.105Z,102193.44
2023-08-22T19:30:06.419Z,102196.44
2023-08-22T19:32:58.526Z,102191.25
2023-08-22T19:35:27.281Z,102196.06
2023-08-22T19:37:56.735Z,102196.38
2023-08-22T19:40:26.038Z,102194.03
2023-08-22T19:42:55.256Z,102196.19
2023-08-22T19:45:24.488Z,102186.63
2023-08-22T19:47:53.707Z,102189.63
2023-08-22T19:50:23.160Z,102185.31
2023-08-22T19:52:52.406Z,102190.91
2023-08-22T19:55:21.620Z,102194.75
2023-08-22T19:57:50.819Z,102195.94
2023-08-22T20:00:20.337Z,102194.44
2023-08-22T20:02:52.244Z,102195.63
2023-08-22T20:05:23.222Z,102189.75
2023-08-22T20:07:54.193Z,102189.03
2023-08-22T20:10:24.009Z,102187.53
2023-08-22T20:12:53.227Z,102189.59
2023-08-22T20:15:22.589Z,102196.19
2023-08-22T20:17:54.949Z,102192.84
2023-08-22T20:20:26.066Z,102185.06
2023-08-22T20:22:55.239Z,102188.84
2023-08-22T20:25:24.543Z,102193.63
2023-08-22T20:27:53.772Z,102183.91
2023-08-22T20:30:22.975Z,102188.69
2023-08-22T20:32:52.200Z,102190.59
2023-08-22T20:35:21.738Z,102193.56
2023-08-22T20:37:51.207Z,102183.88
2023-08-22T20:40:20.432Z,102174.22
2023-08-22T20:42:49.676Z,102185.19
2023-08-22T20:45:18.891Z,102180.81
2023-08-22T20:47:48.494Z,102176.50
2023-08-22T20:50:17.913Z,102184.03
2023-08-22T20:52:47.131Z,102176.16
2023-08-22T20:55:16.313Z,102181.88
2023-08-22T20:57:45.835Z,102184.69
2023-08-22T21:00:19.132Z,102190.22
2023-08-22T21:02:48.715Z,102178.72
2023-08-22T21:05:18.149Z,102178.88
2023-08-22T21:07:47.805Z,102183.69
2023-08-22T21:10:17.129Z,102185.66
2023-08-22T21:12:46.564Z,102177.75
2023-08-22T21:15:15.917Z,102189.50
2023-08-22T21:17:45.807Z,102196.94
2023-08-22T21:20:15.285Z,102193.50
2023-08-22T21:22:44.652Z,102196.34
2023-08-22T21:25:14.282Z,102195.75
2023-08-22T21:27:43.656Z,102196.94
2023-08-22T21:30:14.948Z,102198.84
2023-08-22T21:32:44.301Z,102202.47
2023-08-22T21:35:13.551Z,102200.94
2023-08-22T21:37:44.891Z,102206.53
2023-08-22T21:40:14.088Z,102212.00
2023-08-22T21:42:43.375Z,102214.88
2023-08-22T21:45:16.668Z,102211.41
2023-08-22T21:47:46.463Z,102211.59
2023-08-22T21:50:15.742Z,102208.09
2023-08-22T21:52:45.973Z,102201.88
2023-08-22T21:55:15.444Z,102205.75
2023-08-22T21:57:44.746Z,102207.84
2023-08-22T22:00:15.239Z,102217.81
2023-08-22T22:02:44.587Z,102222.44
2023-08-22T22:05:13.867Z,102232.47
2023-08-22T22:07:43.023Z,102228.09
2023-08-22T22:10:12.314Z,102232.75
2023-08-22T22:12:41.538Z,102221.19
2023-08-22T22:15:11.003Z,102216.75
2023-08-22T22:17:40.985Z,102213.34
2023-08-22T22:20:11.305Z,102216.22
2023-08-22T22:22:40.647Z,102221.72
2023-08-22T22:25:11.746Z,102211.97
2023-08-22T22:27:41.055Z,102211.16
2023-08-22T22:30:10.789Z,102208.59
2023-08-22T22:32:39.972Z,102207.81
2023-08-22T22:35:09.479Z,102207.22
2023-08-22T22:37:38.655Z,102209.22
2023-08-22T22:40:08.467Z,102204.88
2023-08-22T22:42:37.898Z,102206.81
2023-08-22T22:45:07.529Z,102205.16
2023-08-22T22:47:36.858Z,102199.88
2023-08-22T22:50:06.324Z,102195.44
2023-08-22T22:52:35.482Z,102195.56
2023-08-22T22:55:04.757Z,102191.16
2023-08-22T22:57:33.977Z,102187.69
2023-08-22T23:00:05.574Z,102185.06
2023-08-22T23:02:35.025Z,102187.91
2023-08-22T23:05:04.458Z,102190.88
2023-08-22T23:07:33.639Z,102199.00
2023-08-22T23:10:02.869Z,102207.19
2023-08-22T23:12:35.056Z,102202.72
2023-08-22T23:15:04.858Z,102207.28
2023-08-22T23:17:36.891Z,102201.19
2023-08-22T23:20:08.476Z,102206.72
2023-08-22T23:22:42.625Z,102205.13
2023-08-22T23:25:12.425Z,102204.34
2023-08-22T23:27:42.280Z,102201.78
2023-08-22T23:30:13.821Z,102204.50
2023-08-22T23:32:43.062Z,102204.56
2023-08-22T23:35:12.286Z,102198.44
2023-08-22T23:37:41.539Z,102199.38
2023-08-22T23:40:40.070Z,102197.78
2023-08-22T23:43:09.234Z,102202.50
2023-08-22T23:45:38.506Z,102213.28
2023-08-22T23:48:07.752Z,102205.34
2023-08-22T23:50:36.937Z,102204.59
2023-08-22T23:53:06.218Z,102210.09
2023-08-22T23:55:35.412Z,102206.56
2023-08-22T23:58:04.615Z,102207.59
